createdAt,value
2023-01-10T00:00:12.258Z,7.66
2023-01-10T00:03:03.476Z,7.86
2023-01-10T00:05:33.072Z,7.93
2023-01-10T00:08:03.626Z,8.14
2023-01-10T00:10:33.895Z,8.21
2023-01-10T00:13:21.212Z,8.34
2023-01-10T00:15:50.522Z,8.59
2023-01-10T00:18:21.905Z,8.44
2023-01-10T00:20:51.453Z,8.47
2023-01-10T00:23:24.595Z,8.66
2023-01-10T00:25:53.878Z,8.78
2023-01-10T00:28:23.935Z,8.78
2023-01-10T00:31:00.851Z,8.84
2023-01-10T00:33:32.187Z,8.90
2023-01-10T00:36:02.136Z,8.84
2023-01-10T00:38:33.002Z,8.69
2023-01-10T00:41:02.165Z,8.67
2023-01-10T00:43:48.826Z,8.65
2023-01-10T00:46:18.096Z,8.73
2023-01-10T00:48:49.123Z,8.70
2023-01-10T00:51:18.386Z,8.65
2023-01-10T00:53:47.910Z,8.76
2023-01-10T00:56:17.364Z,8.64
2023-01-10T00:58:46.857Z,8.63
2023-01-10T01:01:16.251Z,8.56
2023-01-10T01:03:45.765Z,8.64
2023-01-10T01:06:16.304Z,8.56
2023-01-10T01:08:45.875Z,8.53
2023-01-10T01:11:15.189Z,8.59
2023-01-10T01:13:44.655Z,8.45
2023-01-10T01:16:14.005Z,8.42
2023-01-10T01:18:43.619Z,8.35
2023-01-10T01:21:12.882Z,8.40
2023-01-10T01:23:43.792Z,8.40
2023-01-10T01:26:12.964Z,8.25
2023-01-10T01:28:42.521Z,8.20
2023-01-10T01:31:12.009Z,8.23
2023-01-10T01:33:41.744Z,8.05
2023-01-10T01:36:12.659Z,8.05
2023-01-10T01:38:43.875Z,7.97
2023-01-10T01:41:35.168Z,7.90
2023-01-10T01:44:07.230Z,7.73
2023-01-10T01:46:39.672Z,7.71
2023-01-10T01:49:17.802Z,7.69
2023-01-10T01:51:50.427Z,7.65
2023-01-10T01:54:21.898Z,7.78
2023-01-10T01:56:57.107Z,7.73
2023-01-10T01:59:30.006Z,7.88
2023-01-10T02:02:04.133Z,7.82
2023-01-10T02:04:40.246Z,7.73
2023-01-10T02:07:10.289Z,7.61
2023-01-10T02:09:46.953Z,7.35
2023-01-10T02:12:17.213Z,7.42
2023-01-10T02:14:49.470Z,7.44
2023-01-10T02:17:18.795Z,7.40
2023-01-10T02:19:54.252Z,7.30
2023-01-10T02:22:50.399Z,7.28
2023-01-10T02:25:47.026Z,7.28
2023-01-10T02:29:00.031Z,7.19
2023-01-10T02:32:10.807Z,7.14
2023-01-10T02:34:55.732Z,7.28
2023-01-10T02:37:33.380Z,7.33
2023-01-10T02:40:09.140Z,7.32
2023-01-10T02:42:44.650Z,7.17
2023-01-10T02:45:18.822Z,7.25
2023-01-10T02:47:48.353Z,7.21
2023-01-10T02:50:40.273Z,7.14
2023-01-10T02:53:15.064Z,7.06
2023-01-10T02:56:00.532Z,7.14
2023-01-10T02:58:41.739Z,7.05
2023-01-10T03:01:19.893Z,7.05
2023-01-10T03:03:57.943Z,7.07
2023-01-10T03:06:41.214Z,7.06
2023-01-10T03:09:22.312Z,7.02
2023-01-10T03:11:55.006Z,7.10
2023-01-10T03:14:28.505Z,7.16
2023-01-10T03:17:03.388Z,7.14
2023-01-10T03:19:40.510Z,7.11
2023-01-10T03:22:13.024Z,6.95
2023-01-10T03:24:46.710Z,6.83
2023-01-10T03:27:24.063Z,6.74
2023-01-10T03:30:01.225Z,6.74
2023-01-10T03:33:58.830Z,6.69
2023-01-10T03:36:33.348Z,6.71
2023-01-10T03:39:13.866Z,6.73
2023-01-10T03:41:49.894Z,6.75
2023-01-10T03:44:40.687Z,6.72
2023-01-10T03:47:13.046Z,6.75
2023-01-10T03:49:45.455Z,6.74
2023-01-10T03:52:18.125Z,6.69
2023-01-10T03:54:49.290Z,6.62
2023-01-10T03:57:20.720Z,6.62
2023-01-10T03:59:53.276Z,6.73
2023-01-10T04:02:22.868Z,6.54
2023-01-10T04:04:52.086Z,6.66
2023-01-10T04:07:21.792Z,6.60
2023-01-10T04:09:52.863Z,6.70
2023-01-10T04:12:22.397Z,6.62
2023-01-10T04:14:51.551Z,6.66
2023-01-10T04:17:21.030Z,6.67
2023-01-10T04:19:50.231Z,6.51
2023-01-10T04:22:19.877Z,6.52
2023-01-10T04:24:51.399Z,6.72
2023-01-10T04:27:22.629Z,6.70
2023-01-10T04:29:51.733Z,6.75
2023-01-10T04:32:21.237Z,6.67
2023-01-10T04:34:50.545Z,6.76
2023-01-10T04:37:20.004Z,6.85
2023-01-10T04:39:49.123Z,6.82
2023-01-10T04:42:18.930Z,6.89
2023-01-10T04:44:49.665Z,6.71
2023-01-10T04:47:19.136Z,6.87
2023-01-10T04:49:48.234Z,6.85
2023-01-10T04:52:17.756Z,6.84
2023-01-10T04:54:46.871Z,6.92
2023-01-10T04:57:16.339Z,6.91
2023-01-10T04:59:45.605Z,6.90
2023-01-10T05:02:17.629Z,6.97
2023-01-10T05:04:47.037Z,7.10
2023-01-10T05:07:16.858Z,6.98
2023-01-10T05:09:45.984Z,6.88
2023-01-10T05:12:15.409Z,7.15
2023-01-10T05:14:44.606Z,7.10
2023-01-10T05:17:15.394Z,7.11
2023-01-10T05:19:44.547Z,6.90
2023-01-10T05:22:14.048Z,6.77
2023-01-10T05:24:43.283Z,6.72
2023-01-10T05:27:12.708Z,6.59
2023-01-10T05:29:41.841Z,6.62
2023-01-10T05:32:11.574Z,6.76
2023-01-10T05:34:42.267Z,6.92
2023-01-10T05:37:11.669Z,6.53
2023-01-10T05:39:41.534Z,6.67
2023-01-10T05:42:10.941Z,6.64
2023-01-10T05:44:40.033Z,6.65
2023-01-10T05:47:09.539Z,6.58
2023-01-10T05:49:38.754Z,6.56
2023-01-10T05:52:09.505Z,6.45
2023-01-10T05:54:38.672Z,6.59
2023-01-10T05:57:08.148Z,6.63
2023-01-10T05:59:37.455Z,6.55
2023-01-10T06:02:07.132Z,6.64
2023-01-10T06:04:36.283Z,6.77
2023-01-10T06:07:05.711Z,6.79
2023-01-10T06:09:36.329Z,6.76
2023-01-10T06:12:06.149Z,6.59
2023-01-10T06:14:35.212Z,6.55
2023-01-10T06:17:08.975Z,6.42
2023-01-10T06:19:38.275Z,6.75
2023-01-10T06:22:07.949Z,6.81
2023-01-10T06:24:38.462Z,7.00
2023-01-10T06:27:07.917Z,6.90
2023-01-10T06:29:37.112Z,6.88
2023-01-10T06:32:06.584Z,6.92
2023-01-10T06:34:35.741Z,6.95
2023-01-10T06:37:05.326Z,6.75
2023-01-10T06:39:34.709Z,6.79
2023-01-10T06:42:05.575Z,6.68
2023-01-10T06:44:34.751Z,6.75
2023-01-10T06:47:04.244Z,6.60
2023-01-10T06:49:33.339Z,6.45
2023-01-10T06:52:02.811Z,6.36
2023-01-10T06:54:32.006Z,6.34
2023-01-10T06:57:01.441Z,6.25
2023-01-10T06:59:31.923Z,6.09
2023-01-10T07:02:01.531Z,6.09
2023-01-10T07:04:30.814Z,6.02
2023-01-10T07:07:00.243Z,6.01
2023-01-10T07:09:30.007Z,5.91
2023-01-10T07:11:59.363Z,6.04
2023-01-10T07:14:28.480Z,6.23
2023-01-10T07:16:59.536Z,6.43
2023-01-10T07:19:28.670Z,6.40
2023-01-10T07:21:58.104Z,6.34
2023-01-10T07:24:27.195Z,6.38
2023-01-10T07:26:57.288Z,6.36
2023-01-10T07:29:26.448Z,6.41
2023-01-10T07:31:55.911Z,6.38
2023-01-10T07:34:26.388Z,6.39
2023-01-10T07:36:55.759Z,6.48
2023-01-10T07:39:25.078Z,6.43
2023-01-10T07:41:55.353Z,6.50
2023-01-10T07:44:24.560Z,6.47
2023-01-10T07:46:53.954Z,6.42
2023-01-10T07:49:23.913Z,6.55
2023-01-10T07:51:54.913Z,6.53
2023-01-10T07:54:24.083Z,6.51
2023-01-10T07:56:53.470Z,6.63
2023-01-10T07:59:22.720Z,6.48
2023-01-10T08:01:52.218Z,6.67
2023-01-10T08:04:21.349Z,6.68
2023-01-10T08:06:51.750Z,6.74
2023-01-10T08:09:22.206Z,6.73
2023-01-10T08:11:51.586Z,6.60
2023-01-10T08:14:20.940Z,6.56
2023-01-10T08:16:50.401Z,6.47
2023-01-10T08:19:19.475Z,6.53
2023-01-10T08:21:48.993Z,6.77
2023-01-10T08:24:18.201Z,7.01
2023-01-10T08:26:48.941Z,7.14
2023-01-10T08:29:18.337Z,7.14
2023-01-10T08:31:49.149Z,7.02
2023-01-10T08:34:18.626Z,7.00
2023-01-10T08:36:51.142Z,7.09
2023-01-10T08:39:22.397Z,7.05
2023-01-10T08:41:53.513Z,7.23
2023-01-10T08:44:22.783Z,7.39
2023-01-10T08:46:52.392Z,7.52
2023-01-10T08:49:21.680Z,7.70
2023-01-10T08:51:51.313Z,7.83
2023-01-10T08:54:20.573Z,7.75
2023-01-10T08:56:50.051Z,7.91
2023-01-10T08:59:20.795Z,7.98
2023-01-10T09:01:50.365Z,8.12
2023-01-10T09:04:19.614Z,8.24
2023-01-10T09:06:49.163Z,8.31
2023-01-10T09:09:18.578Z,8.21
2023-01-10T09:11:48.091Z,8.23
2023-01-10T09:14:17.471Z,8.18
2023-01-10T09:16:51.730Z,8.25
2023-01-10T09:19:20.912Z,8.18
2023-01-10T09:21:50.351Z,8.31
2023-01-10T09:24:20.072Z,8.18
2023-01-10T09:26:49.606Z,8.32
2023-01-10T09:29:18.848Z,8.33
2023-01-10T09:31:49.746Z,8.34
2023-01-10T09:34:18.826Z,8.27
2023-01-10T09:36:48.209Z,8.52
2023-01-10T09:39:17.352Z,8.10
2023-01-10T09:42:07.161Z,8.17
2023-01-10T09:44:45.851Z,8.23
2023-01-10T09:47:25.917Z,8.32
2023-01-10T09:50:07.592Z,8.39
2023-01-10T09:52:43.664Z,8.26
2023-01-10T09:55:21.788Z,8.27
2023-01-10T09:57:53.024Z,8.45
2023-01-10T10:00:28.974Z,8.59
2023-01-10T10:03:00.020Z,8.62
2023-01-10T10:05:30.042Z,8.72
2023-01-10T10:08:02.456Z,8.52
2023-01-10T10:10:40.323Z,8.48
2023-01-10T10:13:27.442Z,8.44
2023-01-10T10:16:08.864Z,8.48
2023-01-10T10:18:51.977Z,8.83
2023-01-10T10:21:28.635Z,8.90
2023-01-10T10:24:26.959Z,8.99
2023-01-10T10:27:00.539Z,9.20
2023-01-10T10:29:53.841Z,8.74
2023-01-10T10:32:39.747Z,8.74
2023-01-10T10:35:18.219Z,9.00
2023-01-10T10:37:51.397Z,9.22
2023-01-10T10:40:23.430Z,9.30
2023-01-10T10:42:54.834Z,9.37
2023-01-10T10:45:30.350Z,9.43
2023-01-10T10:48:05.406Z,9.72
2023-01-10T10:50:41.978Z,9.74
2023-01-10T10:53:12.507Z,9.79
2023-01-10T10:55:42.295Z,10.14
2023-01-10T10:58:15.379Z,10.15
2023-01-10T11:00:44.877Z,10.64
2023-01-10T11:03:33.409Z,10.84
2023-01-10T11:06:04.757Z,10.36
2023-01-10T11:08:37.429Z,10.31
2023-01-10T11:11:16.930Z,10.32
2023-01-10T11:13:50.017Z,10.32
2023-01-10T11:16:31.912Z,10.71
2023-01-10T11:19:22.727Z,11.70
2023-01-10T11:21:56.632Z,12.15
2023-01-10T11:24:29.936Z,13.14
2023-01-10T11:27:02.900Z,14.84
2023-01-10T11:29:41.266Z,14.54
2023-01-10T11:32:15.256Z,13.68
2023-01-10T11:34:53.805Z,15.01
2023-01-10T11:37:29.395Z,14.63
2023-01-10T11:40:18.880Z,13.69
2023-01-10T11:42:49.079Z,12.84
2023-01-10T11:45:31.893Z,12.48
2023-01-10T11:48:09.076Z,12.25
2023-01-10T11:50:42.953Z,12.09
2023-01-10T11:53:39.544Z,11.96
2023-01-10T11:56:11.295Z,11.72
2023-01-10T11:58:42.090Z,11.69
2023-01-10T12:01:30.436Z,11.61
2023-01-10T12:04:00.673Z,11.64
2023-01-10T12:06:30.640Z,11.96
2023-01-10T12:09:01.551Z,11.92
2023-01-10T12:11:33.179Z,12.49
2023-01-10T12:14:03.719Z,12.50
2023-01-10T12:16:34.331Z,12.10
2023-01-10T12:19:06.733Z,11.74
2023-01-10T12:21:39.796Z,11.42
2023-01-10T12:24:17.123Z,11.38
2023-01-10T12:26:47.672Z,11.83
2023-01-10T12:29:20.908Z,11.64
2023-01-10T12:31:51.975Z,11.57
2023-01-10T12:34:24.580Z,11.99
2023-01-10T12:37:02.369Z,12.08
2023-01-10T12:39:35.955Z,11.22
2023-01-10T12:42:35.261Z,11.51
2023-01-10T12:45:10.216Z,11.25
2023-01-10T12:47:49.482Z,11.27
2023-01-10T12:50:25.125Z,10.86
2023-01-10T12:53:00.846Z,11.28
2023-01-10T12:55:36.575Z,11.32
2023-01-10T12:58:07.209Z,11.40
2023-01-10T13:00:48.331Z,11.44
2023-01-10T13:03:22.551Z,11.27
2023-01-10T13:05:53.226Z,11.33
2023-01-10T13:08:26.817Z,11.70
2023-01-10T13:11:00.108Z,11.82
2023-01-10T13:13:35.625Z,11.21
2023-01-10T13:16:30.352Z,10.96
2023-01-10T13:19:06.663Z,10.50
2023-01-10T13:21:36.954Z,10.47
2023-01-10T13:24:08.808Z,10.24
2023-01-10T13:26:53.854Z,10.10
2023-01-10T13:29:24.973Z,10.36
2023-01-10T13:31:58.201Z,10.03
2023-01-10T13:34:33.410Z,9.84
2023-01-10T13:37:05.534Z,9.82
2023-01-10T13:39:38.985Z,10.00
2023-01-10T13:42:57.678Z,10.24
2023-01-10T13:45:29.509Z,10.36
2023-01-10T13:48:01.061Z,10.49
2023-01-10T13:50:53.633Z,10.30
2023-01-10T13:53:57.338Z,9.98
2023-01-10T13:56:38.102Z,10.24
2023-01-10T13:59:31.785Z,10.15
2023-01-10T14:02:20.256Z,10.13
2023-01-10T14:04:54.006Z,9.74
2023-01-10T14:07:29.570Z,9.88
2023-01-10T14:10:05.195Z,9.97
2023-01-10T14:12:39.645Z,10.01
2023-01-10T14:15:25.992Z,9.82
2023-01-10T14:18:02.392Z,9.62
2023-01-10T14:20:34.407Z,9.59
2023-01-10T14:23:07.685Z,9.41
2023-01-10T14:25:39.218Z,9.08
2023-01-10T14:28:22.261Z,8.90
2023-01-10T14:31:02.908Z,8.85
2023-01-10T14:33:33.642Z,8.82
2023-01-10T14:36:09.810Z,8.64
2023-01-10T14:38:40.441Z,8.63
2023-01-10T14:41:18.757Z,8.45
2023-01-10T14:43:54.244Z,8.33
2023-01-10T14:46:31.309Z,8.20
2023-01-10T14:49:01.268Z,8.13
2023-01-10T14:51:31.675Z,8.11
2023-01-10T14:54:03.590Z,8.36
2023-01-10T14:56:39.643Z,8.06
2023-01-10T14:59:29.253Z,7.70
2023-01-10T15:02:02.071Z,7.85
2023-01-10T15:04:33.503Z,7.89
2023-01-10T15:07:10.933Z,7.83
2023-01-10T15:09:40.255Z,7.81
2023-01-10T15:12:13.605Z,8.07
2023-01-10T15:14:43.316Z,7.72
2023-01-10T15:17:20.606Z,7.89
2023-01-10T15:19:53.598Z,7.84
2023-01-10T15:22:32.401Z,7.65
2023-01-10T15:25:03.730Z,7.64
2023-01-10T15:27:33.706Z,7.44
2023-01-10T15:30:08.529Z,7.45
2023-01-10T15:32:41.403Z,7.51
2023-01-10T15:35:20.280Z,7.47
2023-01-10T15:37:54.923Z,7.60
2023-01-10T15:40:26.642Z,7.55
2023-01-10T15:43:13.869Z,7.29
2023-01-10T15:45:44.984Z,7.41
2023-01-10T15:48:30.847Z,7.60
2023-01-10T15:51:03.871Z,7.63
2023-01-10T15:53:57.468Z,7.56
2023-01-10T15:56:31.162Z,7.84
2023-01-10T15:59:02.903Z,7.91
2023-01-10T16:01:34.371Z,8.01
2023-01-10T16:04:11.946Z,8.03
2023-01-10T16:06:42.679Z,8.02
2023-01-10T16:09:21.149Z,7.85
2023-01-10T16:12:10.020Z,7.78
2023-01-10T16:14:39.614Z,7.85
2023-01-10T16:17:08.814Z,7.70
2023-01-10T16:19:39.720Z,7.76
2023-01-10T16:22:08.955Z,7.78
2023-01-10T16:24:43.745Z,7.70
2023-01-10T16:27:13.195Z,7.80
2023-01-10T16:29:44.531Z,7.86
2023-01-10T16:32:15.901Z,7.73
2023-01-10T16:34:47.845Z,7.91
2023-01-10T16:37:17.028Z,7.95
2023-01-10T16:39:46.406Z,7.83
2023-01-10T16:42:32.978Z,7.74
2023-01-10T16:45:02.558Z,7.66
2023-01-10T16:47:31.814Z,7.81
2023-01-10T16:50:02.644Z,7.86
2023-01-10T16:52:31.707Z,8.06
2023-01-10T16:55:03.114Z,8.08
2023-01-10T16:57:32.266Z,8.18
2023-01-10T17:00:01.709Z,8.25
2023-01-10T17:02:31.151Z,8.27
2023-01-10T17:05:02.054Z,8.32
2023-01-10T17:07:31.261Z,8.22
2023-01-10T17:10:00.767Z,8.29
2023-01-10T17:12:34.878Z,8.36
2023-01-10T17:15:06.725Z,8.48
2023-01-10T17:17:36.036Z,8.40
2023-01-10T17:20:07.829Z,8.36
2023-01-10T17:22:36.941Z,8.25
2023-01-10T17:25:07.358Z,8.53
2023-01-10T17:27:36.587Z,8.55
2023-01-10T17:30:06.557Z,8.29
2023-01-10T17:32:36.191Z,8.53
2023-01-10T17:35:08.434Z,8.56
2023-01-10T17:37:37.742Z,8.65
2023-01-10T17:40:08.549Z,8.71
2023-01-10T17:42:37.621Z,8.79
2023-01-10T17:45:07.854Z,8.82
2023-01-10T17:47:36.989Z,8.82
2023-01-10T17:50:08.246Z,8.74
2023-01-10T17:52:37.435Z,8.74
2023-01-10T17:55:07.841Z,8.71
2023-01-10T17:57:39.264Z,8.60
2023-01-10T18:00:10.174Z,8.56
2023-01-10T18:02:39.468Z,8.74
2023-01-10T18:05:11.116Z,8.76
2023-01-10T18:07:40.705Z,8.75
2023-01-10T18:10:11.447Z,8.64
2023-01-10T18:12:40.737Z,8.88
2023-01-10T18:15:11.231Z,8.78
2023-01-10T18:17:40.391Z,8.78
2023-01-10T18:20:13.084Z,8.75
2023-01-10T18:22:59.901Z,8.65
2023-01-10T18:25:29.579Z,8.60
2023-01-10T18:28:00.322Z,8.58
2023-01-10T18:30:29.762Z,8.67
2023-01-10T18:32:59.084Z,8.71
2023-01-10T18:35:30.445Z,8.58
2023-01-10T18:38:00.541Z,8.35
2023-01-10T18:40:30.161Z,8.13
2023-01-10T18:42:59.572Z,7.93
2023-01-10T18:45:30.592Z,7.88
2023-01-10T18:47:59.833Z,7.97
2023-01-10T18:50:30.706Z,7.88
2023-01-10T18:53:01.290Z,7.85
2023-01-10T18:55:30.932Z,7.91
2023-01-10T18:58:00.192Z,7.79
2023-01-10T19:00:29.740Z,7.76
2023-01-10T19:02:59.925Z,7.78
2023-01-10T19:05:30.875Z,7.62
2023-01-10T19:08:00.436Z,7.77
2023-01-10T19:10:34.740Z,7.65
2023-01-10T19:13:14.237Z,7.89
2023-01-10T19:15:43.878Z,7.81
2023-01-10T19:18:12.947Z,7.63
2023-01-10T19:20:44.437Z,7.74
2023-01-10T19:23:13.687Z,7.68
2023-01-10T19:25:43.137Z,7.65
2023-01-10T19:28:12.370Z,7.64
2023-01-10T19:30:43.316Z,7.55
2023-01-10T19:33:12.647Z,7.64
2023-01-10T19:35:43.569Z,7.61
2023-01-10T19:38:13.084Z,7.42
2023-01-10T19:40:42.902Z,7.67
2023-01-10T19:43:14.972Z,7.53
2023-01-10T19:45:44.709Z,7.34
2023-01-10T19:48:14.057Z,7.26
2023-01-10T19:50:45.002Z,7.36
2023-01-10T19:53:14.807Z,7.70
2023-01-10T19:55:44.392Z,7.56
2023-01-10T19:58:13.514Z,7.56
2023-01-10T20:00:43.086Z,7.49
2023-01-10T20:03:12.399Z,7.40
2023-01-10T20:05:45.817Z,7.40
2023-01-10T20:08:15.075Z,7.47
2023-01-10T20:10:44.518Z,7.41
2023-01-10T20:13:13.922Z,7.34
2023-01-10T20:15:45.279Z,7.24
2023-01-10T20:18:14.711Z,7.12
2023-01-10T20:20:46.563Z,7.15
2023-01-10T20:23:17.212Z,7.17
2023-01-10T20:25:56.489Z,7.07
2023-01-10T20:28:26.550Z,6.94
2023-01-10T20:30:57.333Z,6.97
2023-01-10T20:33:27.188Z,7.03
2023-01-10T20:36:03.681Z,7.01
2023-01-10T20:38:34.816Z,6.88
2023-01-10T20:41:06.021Z,6.95
2023-01-10T20:43:35.559Z,6.95
2023-01-10T20:46:10.952Z,6.94
2023-01-10T20:48:41.893Z,6.87
2023-01-10T20:51:16.050Z,6.96
2023-01-10T20:53:45.291Z,6.95
2023-01-10T20:56:17.088Z,6.96
2023-01-10T20:58:46.441Z,6.92
2023-01-10T21:01:28.649Z,6.92
2023-01-10T21:04:02.511Z,6.84
2023-01-10T21:06:33.891Z,6.80
2023-01-10T21:09:03.460Z,6.75
2023-01-10T21:11:47.523Z,6.79
2023-01-10T21:14:22.755Z,6.74
2023-01-10T21:16:52.255Z,6.77
2023-01-10T21:19:21.455Z,6.52
2023-01-10T21:21:52.584Z,6.75
2023-01-10T21:24:22.983Z,6.82
2023-01-10T21:26:52.430Z,7.06
2023-01-10T21:29:21.674Z,7.20
2023-01-10T21:31:53.920Z,7.45
2023-01-10T21:34:23.188Z,7.16
2023-01-10T21:36:54.355Z,7.29
2023-01-10T21:39:23.600Z,7.33
2023-01-10T21:42:22.258Z,7.30
2023-01-10T21:44:51.420Z,7.14
2023-01-10T21:47:20.785Z,7.11
2023-01-10T21:49:49.922Z,7.11
2023-01-10T21:52:20.840Z,6.95
2023-01-10T21:54:50.124Z,7.03
2023-01-10T21:57:23.510Z,6.70
2023-01-10T21:59:53.339Z,6.66
2023-01-10T22:02:24.898Z,6.59
2023-01-10T22:04:55.410Z,6.61
2023-01-10T22:07:28.197Z,6.67
2023-01-10T22:09:57.663Z,6.59
2023-01-10T22:12:27.880Z,6.57
2023-01-10T22:14:57.161Z,6.72
2023-01-10T22:17:26.704Z,6.58
2023-01-10T22:19:55.925Z,6.57
2023-01-10T22:22:26.895Z,6.73
2023-01-10T22:24:56.035Z,6.44
2023-01-10T22:27:25.468Z,6.35
2023-01-10T22:29:55.273Z,6.65
2023-01-10T22:32:24.713Z,6.60
2023-01-10T22:34:53.831Z,6.59
2023-01-10T22:37:23.396Z,6.71
2023-01-10T22:39:53.891Z,6.75
2023-01-10T22:42:23.266Z,6.66
2023-01-10T22:44:52.452Z,6.70
2023-01-10T22:47:21.928Z,6.67
2023-01-10T22:49:51.002Z,6.60
2023-01-10T22:52:20.415Z,6.57
2023-01-10T22:54:49.605Z,6.48
2023-01-10T22:57:20.438Z,6.57
2023-01-10T22:59:49.640Z,6.55
2023-01-10T23:02:19.169Z,6.46
2023-01-10T23:04:48.369Z,6.49
2023-01-10T23:07:17.756Z,6.42
2023-01-10T23:09:46.859Z,6.40
2023-01-10T23:12:17.060Z,6.29
2023-01-10T23:14:47.639Z,6.29
2023-01-10T23:17:17.075Z,6.51
2023-01-10T23:19:46.243Z,6.42
2023-01-10T23:22:16.108Z,6.48
2023-01-10T23:24:45.120Z,6.22
2023-01-10T23:27:14.459Z,6.36
2023-01-10T23:29:43.650Z,6.46
2023-01-10T23:32:14.399Z,6.29
2023-01-10T23:34:43.448Z,6.21
2023-01-10T23:37:12.964Z,6.21
2023-01-10T23:39:42.134Z,6.01
2023-01-10T23:42:11.681Z,5.87
2023-01-10T23:44:41.043Z,6.00
2023-01-10T23:47:10.532Z,5.82
2023-01-10T23:49:41.113Z,5.55
2023-01-10T23:52:10.568Z,5.66
2023-01-10T23:54:39.621Z,5.66
2023-01-10T23:57:09.024Z,5.73
2023-01-10T23:59:38.169Z,5.65
